Time;durP1;ratioP1;P1;durP2;ratioP2;P2;SDS_P1;SDS_P2;PMS_P1;PMS_P2;Temp;Humidity;BMP_temperature;BMP_pressure;BME280_temperature;BME280_humidity;BME280_pressure;Samples;Min_cycle;Max_cycle;Signal;HPM_P1;HPM_P2
2024/03/19 00:00:38;;;;;;;232.05;65.43;;;;;;;;;;5011222;28;20206;-45
2024/03/19 00:03:04;;;;;;;230.43;64.22;;;;;;;;;;5010916;28;20192;-45
2024/03/19 00:05:30;;;;;;;233.35;68.05;;;;;;;;;;5010314;28;20276;-45
2024/03/19 00:07:56;;;;;;;233.07;67.77;;;;;;;;;;5010866;28;20369;-45
2024/03/19 00:10:22;;;;;;;229.83;63.07;;;;;;;;;;5010809;28;20942;-45
2024/03/19 00:12:48;;;;;;;229.87;64.63;;;;;;;;;;5010687;28;20408;-45
2024/03/19 00:15:14;;;;;;;239.63;73.17;;;;;;;;;;5010679;28;20900;-45
2024/03/19 00:17:40;;;;;;;232.77;66.37;;;;;;;;;;5010708;28;20450;-45
2024/03/19 00:20:09;;;;;;;230.20;63.28;;;;;;;;;;5010917;28;20415;-45
2024/03/19 00:22:35;;;;;;;231.65;65.40;;;;;;;;;;5010710;28;20726;-45
2024/03/19 00:25:02;;;;;;;229.50;63.58;;;;;;;;;;5010689;28;20184;-45
2024/03/19 00:27:28;;;;;;;234.00;69.22;;;;;;;;;;5010485;28;20214;-45
2024/03/19 00:29:54;;;;;;;237.50;69.30;;;;;;;;;;5008739;28;20263;-45
2024/03/19 00:32:20;;;;;;;231.45;65.43;;;;;;;;;;5004587;28;20183;-45
2024/03/19 00:34:47;;;;;;;231.90;63.97;;;;;;;;;;5010845;28;20663;-45
2024/03/19 00:37:13;;;;;;;234.07;67.45;;;;;;;;;;5014115;28;20447;-45
2024/03/19 00:39:39;;;;;;;233.57;68.87;;;;;;;;;;5015113;28;20264;-45
2024/03/19 00:42:06;;;;;;;231.27;66.60;;;;;;;;;;5014737;28;20482;-45
2024/03/19 00:44:32;;;;;;;228.30;63.08;;;;;;;;;;5013825;28;20959;-45
2024/03/19 00:46:59;;;;;;;229.45;63.67;;;;;;;;;;5014236;28;20581;-45
2024/03/19 00:49:26;;;;;;;231.93;66.82;;;;;;;;;;5014562;28;20171;-45
2024/03/19 00:51:52;;;;;;;229.38;65.18;;;;;;;;;;5014592;28;20244;-45
2024/03/19 00:54:18;;;;;;;235.53;68.57;;;;;;;;;;5014186;28;20664;-45
2024/03/19 00:56:44;;;;;;;232.67;66.13;;;;;;;;;;5014313;28;20496;-45
2024/03/19 00:59:10;;;;;;;231.83;67.23;;;;;;;;;;5014449;28;20439;-45
2024/03/19 01:01:36;;;;;;;230.17;63.33;;;;;;;;;;5014263;28;20780;-45
2024/03/19 01:04:05;;;;;;;227.97;62.43;;;;;;;;;;5014241;28;20465;-45
2024/03/19 01:06:37;;;;;;;230.07;64.07;;;;;;;;;;5013436;28;20478;-45
2024/03/19 01:09:12;;;;;;;232.10;66.95;;;;;;;;;;5009751;28;20550;-45
2024/03/19 01:11:38;;;;;;;233.77;67.35;;;;;;;;;;5006682;28;20180;-45
2024/03/19 01:14:04;;;;;;;229.90;65.33;;;;;;;;;;5014236;28;20702;-45
2024/03/19 01:16:30;;;;;;;231.98;64.50;;;;;;;;;;5013614;28;20435;-45
2024/03/19 01:18:56;;;;;;;231.23;66.20;;;;;;;;;;5014095;28;20681;-45
2024/03/19 01:21:22;;;;;;;232.30;67.17;;;;;;;;;;5013624;28;20421;-45
2024/03/19 01:23:48;;;;;;;230.37;66.17;;;;;;;;;;5011369;28;20462;-45
2024/03/19 01:26:14;;;;;;;233.73;68.65;;;;;;;;;;5013209;28;20439;-45
2024/03/19 01:28:40;;;;;;;231.83;66.57;;;;;;;;;;5013514;28;20660;-45
2024/03/19 01:31:07;;;;;;;228.97;64.47;;;;;;;;;;5013585;28;20502;-45
2024/03/19 01:33:33;;;;;;;228.77;63.25;;;;;;;;;;5011145;28;20430;-45
2024/03/19 01:35:59;;;;;;;234.47;68.93;;;;;;;;;;5013161;28;20471;-45
2024/03/19 01:38:25;;;;;;;233.07;66.87;;;;;;;;;;5013369;28;20497;-45
2024/03/19 01:40:51;;;;;;;230.48;63.22;;;;;;;;;;5013297;28;20504;-45
2024/03/19 01:43:19;;;;;;;230.55;66.38;;;;;;;;;;5013199;28;20204;-45
2024/03/19 01:45:45;;;;;;;230.48;66.82;;;;;;;;;;5012651;28;20189;-45
2024/03/19 01:48:11;;;;;;;232.27;66.53;;;;;;;;;;5013227;28;20180;-45
2024/03/19 01:50:39;;;;;;;232.80;66.20;;;;;;;;;;5013044;28;20418;-45
2024/03/19 01:53:05;;;;;;;230.05;64.65;;;;;;;;;;5013425;28;20180;-44
2024/03/19 01:55:32;;;;;;;231.15;67.53;;;;;;;;;;5012916;28;20182;-45
2024/03/19 01:57:59;;;;;;;227.23;61.72;;;;;;;;;;5013498;28;20201;-45
2024/03/19 02:00:25;;;;;;;229.98;62.53;;;;;;;;;;5012312;28;20533;-45
2024/03/19 02:02:51;;;;;;;230.68;65.05;;;;;;;;;;5012399;28;20617;-44
2024/03/19 02:05:18;;;;;;;233.68;67.20;;;;;;;;;;5012034;28;20522;-45
2024/03/19 02:07:44;;;;;;;228.38;63.67;;;;;;;;;;5012874;28;20541;-45
2024/03/19 02:10:10;;;;;;;229.77;63.80;;;;;;;;;;5013091;28;20179;-45
2024/03/19 02:12:36;;;;;;;232.50;66.80;;;;;;;;;;5012740;28;20413;-45
2024/03/19 02:15:03;;;;;;;231.82;66.55;;;;;;;;;;5012869;28;20173;-45
2024/03/19 02:17:29;;;;;;;231.38;64.90;;;;;;;;;;5012599;28;20239;-45
2024/03/19 02:19:55;;;;;;;231.10;66.07;;;;;;;;;;5012812;28;20262;-45
2024/03/19 02:22:25;;;;;;;232.25;65.20;;;;;;;;;;5012880;28;20976;-44
2024/03/19 02:24:51;;;;;;;230.55;64.10;;;;;;;;;;5012768;28;20180;-45
2024/03/19 02:27:17;;;;;;;233.33;68.57;;;;;;;;;;5012301;28;20195;-45
2024/03/19 02:29:45;;;;;;;229.00;64.70;;;;;;;;;;5012689;28;20418;-45
2024/03/19 02:32:10;;;;;;;227.68;62.35;;;;;;;;;;5012606;28;20415;-45
2024/03/19 02:34:36;;;;;;;226.93;62.30;;;;;;;;;;5010983;28;20664;-44
2024/03/19 02:37:02;;;;;;;230.32;66.35;;;;;;;;;;5012184;28;20832;-44
2024/03/19 02:39:28;;;;;;;232.75;66.38;;;;;;;;;;5012395;28;20211;-44
2024/03/19 02:41:54;;;;;;;230.07;63.90;;;;;;;;;;5012531;28;20283;-45
2024/03/19 02:44:20;;;;;;;233.50;67.70;;;;;;;;;;5012363;28;20469;-45
2024/03/19 02:46:46;;;;;;;231.53;65.27;;;;;;;;;;5012054;28;20897;-45
2024/03/19 02:49:12;;;;;;;228.17;62.73;;;;;;;;;;5012432;28;20434;-45
2024/03/19 02:51:38;;;;;;;228.13;64.40;;;;;;;;;;5012214;28;20543;-44
2024/03/19 02:54:04;;;;;;;234.00;68.95;;;;;;;;;;5012201;28;20413;-45
2024/03/19 02:56:30;;;;;;;231.93;66.10;;;;;;;;;;5011828;28;20295;-45
2024/03/19 02:58:56;;;;;;;228.57;63.63;;;;;;;;;;5011670;28;20419;-45
2024/03/19 03:01:22;;;;;;;230.57;65.17;;;;;;;;;;5011965;28;20481;-45
2024/03/19 03:03:48;;;;;;;232.70;68.55;;;;;;;;;;5012014;28;20812;-45
2024/03/19 03:06:14;;;;;;;230.75;65.45;;;;;;;;;;5011726;28;20227;-45
2024/03/19 03:08:40;;;;;;;227.05;62.42;;;;;;;;;;5012188;28;20570;-45
2024/03/19 03:11:06;;;;;;;229.33;64.90;;;;;;;;;;5012088;28;20172;-45
2024/03/19 03:13:32;;;;;;;231.02;65.40;;;;;;;;;;5011849;28;20824;-45
2024/03/19 03:15:58;;;;;;;230.10;63.88;;;;;;;;;;5011501;28;20195;-45
2024/03/19 03:18:24;;;;;;;230.57;64.90;;;;;;;;;;5011664;28;20536;-45
2024/03/19 03:20:50;;;;;;;232.50;65.80;;;;;;;;;;5011795;28;20411;-45
2024/03/19 03:23:16;;;;;;;227.83;62.87;;;;;;;;;;5011677;28;20513;-45
2024/03/19 03:25:42;;;;;;;232.60;67.13;;;;;;;;;;5011392;28;20407;-45
2024/03/19 03:28:08;;;;;;;228.68;61.25;;;;;;;;;;5011664;28;20403;-45
2024/03/19 03:30:34;;;;;;;232.30;68.60;;;;;;;;;;5011481;28;20573;-45
2024/03/19 03:33:00;;;;;;;229.73;63.60;;;;;;;;;;5011785;28;20420;-45
2024/03/19 03:35:27;;;;;;;231.17;66.67;;;;;;;;;;5011222;28;20962;-45
2024/03/19 03:37:53;;;;;;;236.90;72.85;;;;;;;;;;5011539;28;20427;-45
2024/03/19 03:40:18;;;;;;;229.33;66.17;;;;;;;;;;5011427;28;20186;-45
2024/03/19 03:42:45;;;;;;;233.00;71.57;;;;;;;;;;5011344;28;20455;-45
2024/03/19 03:45:11;;;;;;;236.38;68.28;;;;;;;;;;5011015;28;20415;-45
2024/03/19 03:47:38;;;;;;;228.35;62.97;;;;;;;;;;5003401;28;20239;-45
2024/03/19 03:50:04;;;;;;;230.20;64.55;;;;;;;;;;5011316;28;20175;-44
2024/03/19 03:52:32;;;;;;;230.98;64.60;;;;;;;;;;5011192;28;20211;-45
2024/03/19 03:55:00;;;;;;;231.95;65.60;;;;;;;;;;5011235;28;20187;-45
2024/03/19 03:57:26;;;;;;;229.77;64.53;;;;;;;;;;5011204;28;20249;-45
2024/03/19 03:59:52;;;;;;;229.93;64.13;;;;;;;;;;5010550;28;20728;-45
2024/03/19 04:02:18;;;;;;;233.70;69.13;;;;;;;;;;5011021;28;20717;-45
2024/03/19 04:04:43;;;;;;;231.00;67.00;;;;;;;;;;5010997;28;20895;-45
2024/03/19 04:07:09;;;;;;;230.40;65.87;;;;;;;;;;5010563;28;20819;-45
2024/03/19 04:09:35;;;;;;;231.17;66.37;;;;;;;;;;5010061;28;20857;-45
2024/03/19 04:12:01;;;;;;;230.67;65.10;;;;;;;;;;5011134;28;20423;-45
2024/03/19 04:14:27;;;;;;;231.87;65.53;;;;;;;;;;5010860;28;20410;-45
2024/03/19 04:16:53;;;;;;;229.27;67.63;;;;;;;;;;5010612;28;20426;-45
2024/03/19 04:19:19;;;;;;;233.87;71.50;;;;;;;;;;5010931;28;20411;-45
2024/03/19 04:21:45;;;;;;;230.37;66.93;;;;;;;;;;5011124;28;20411;-45
2024/03/19 04:24:12;;;;;;;231.70;67.25;;;;;;;;;;5011633;28;20876;-46
2024/03/19 04:26:38;;;;;;;229.90;67.00;;;;;;;;;;5010583;28;20223;-45
2024/03/19 04:29:04;;;;;;;232.82;69.68;;;;;;;;;;5010782;28;20598;-45
2024/03/19 04:31:31;;;;;;;233.45;70.53;;;;;;;;;;5010947;28;20605;-45
2024/03/19 04:33:57;;;;;;;231.82;69.30;;;;;;;;;;5010926;28;20227;-45
2024/03/19 04:36:23;;;;;;;229.53;65.13;;;;;;;;;;5010559;28;20691;-45
2024/03/19 04:38:49;;;;;;;230.93;67.23;;;;;;;;;;5010677;28;20415;-45
2024/03/19 04:41:15;;;;;;;232.67;70.00;;;;;;;;;;5010783;28;20468;-45
2024/03/19 04:43:41;;;;;;;230.10;66.17;;;;;;;;;;5010697;28;20459;-45
2024/03/19 04:46:07;;;;;;;229.67;65.00;;;;;;;;;;5010477;28;20434;-45
2024/03/19 04:48:32;;;;;;;229.13;64.97;;;;;;;;;;5010568;28;20411;-45
2024/03/19 04:50:58;;;;;;;229.17;65.27;;;;;;;;;;5010678;28;20458;-45
2024/03/19 04:53:24;;;;;;;228.30;63.53;;;;;;;;;;5010690;28;20415;-45
2024/03/19 04:55:50;;;;;;;230.45;66.00;;;;;;;;;;5010354;28;20454;-46
2024/03/19 04:58:16;;;;;;;227.00;61.30;;;;;;;;;;5010362;28;20196;-45
2024/03/19 05:00:42;;;;;;;228.67;65.53;;;;;;;;;;5010790;28;20425;-46
2024/03/19 05:03:08;;;;;;;229.20;65.50;;;;;;;;;;5010587;28;20463;-45
2024/03/19 05:05:34;;;;;;;228.23;62.80;;;;;;;;;;5010219;28;20885;-45
2024/03/19 05:08:00;;;;;;;229.87;66.97;;;;;;;;;;5010870;28;20822;-45
2024/03/19 05:10:26;;;;;;;230.97;66.87;;;;;;;;;;5010540;28;20499;-45
2024/03/19 05:12:52;;;;;;;232.40;66.63;;;;;;;;;;5010367;28;20469;-45
2024/03/19 05:15:18;;;;;;;232.63;66.70;;;;;;;;;;5010357;28;20415;-46
2024/03/19 05:17:44;;;;;;;228.17;62.13;;;;;;;;;;5010248;28;20509;-45
2024/03/19 05:20:11;;;;;;;231.37;66.40;;;;;;;;;;5010458;28;20426;-46
2024/03/19 05:22:37;;;;;;;229.80;66.65;;;;;;;;;;5013554;28;20463;-46
2024/03/19 05:25:03;;;;;;;230.00;64.90;;;;;;;;;;5013660;28;20230;-45
2024/03/19 05:27:29;;;;;;;232.03;69.43;;;;;;;;;;5013546;28;20192;-45
2024/03/19 05:29:55;;;;;;;229.40;65.17;;;;;;;;;;5014151;28;20412;-47
2024/03/19 05:32:21;;;;;;;230.97;66.33;;;;;;;;;;5014086;28;20468;-45
2024/03/19 05:34:47;;;;;;;231.97;68.17;;;;;;;;;;5013840;28;20911;-45
2024/03/19 05:37:13;;;;;;;229.63;66.07;;;;;;;;;;5013293;28;20454;-45
2024/03/19 05:39:38;;;;;;;230.13;67.03;;;;;;;;;;5013686;28;20490;-45
2024/03/19 05:42:05;;;;;;;232.77;70.30;;;;;;;;;;5013490;28;20415;-46
2024/03/19 05:44:30;;;;;;;232.10;68.88;;;;;;;;;;5013546;28;20852;-46
2024/03/19 05:46:56;;;;;;;231.37;68.27;;;;;;;;;;5013161;28;20196;-45
2024/03/19 05:49:23;;;;;;;231.13;66.83;;;;;;;;;;5013560;28;20796;-45
2024/03/19 05:51:49;;;;;;;231.02;67.07;;;;;;;;;;5013345;28;20418;-45
2024/03/19 05:54:16;;;;;;;234.03;72.70;;;;;;;;;;5013466;28;20188;-46
2024/03/19 05:56:42;;;;;;;233.48;68.05;;;;;;;;;;5013299;28;20435;-46
2024/03/19 05:59:08;;;;;;;234.50;69.60;;;;;;;;;;5012385;28;20219;-45
2024/03/19 06:01:33;;;;;;;231.83;69.27;;;;;;;;;;5013013;28;20415;-45
2024/03/19 06:04:01;;;;;;;235.87;73.07;;;;;;;;;;5013007;28;20482;-45
2024/03/19 06:06:27;;;;;;;235.05;72.70;;;;;;;;;;5012708;28;20997;-46
2024/03/19 06:08:53;;;;;;;229.40;64.57;;;;;;;;;;5013061;28;20208;-45
2024/03/19 06:11:19;;;;;;;231.73;70.00;;;;;;;;;;5012934;28;20403;-45
2024/03/19 06:13:45;;;;;;;234.00;70.93;;;;;;;;;;5011548;28;20419;-45
2024/03/19 06:16:10;;;;;;;232.83;68.63;;;;;;;;;;5012477;28;20931;-45
2024/03/19 06:18:37;;;;;;;234.10;70.27;;;;;;;;;;5012647;28;20794;-45
2024/03/19 06:21:03;;;;;;;232.25;68.90;;;;;;;;;;5012701;28;20417;-45
2024/03/19 06:23:29;;;;;;;236.80;72.97;;;;;;;;;;5012581;28;20212;-45
2024/03/19 06:25:55;;;;;;;233.87;70.10;;;;;;;;;;5012193;28;20201;-45
2024/03/19 06:28:21;;;;;;;229.33;65.60;;;;;;;;;;5012415;28;20404;-45
2024/03/19 06:30:47;;;;;;;229.97;66.27;;;;;;;;;;5012627;28;20493;-45
2024/03/19 06:33:13;;;;;;;232.07;70.03;;;;;;;;;;5006816;28;20904;-45
2024/03/19 06:35:40;;;;;;;235.52;69.30;;;;;;;;;;5011975;28;20404;-45
2024/03/19 06:38:06;;;;;;;230.57;64.25;;;;;;;;;;5012117;28;20275;-45
2024/03/19 06:40:32;;;;;;;233.38;69.25;;;;;;;;;;5012542;28;20189;-45
2024/03/19 06:42:59;;;;;;;230.47;64.43;;;;;;;;;;5012201;28;20744;-45
2024/03/19 06:45:26;;;;;;;236.05;73.82;;;;;;;;;;5011952;28;20405;-44
2024/03/19 06:47:53;;;;;;;234.95;70.38;;;;;;;;;;5012060;28;20177;-45
2024/03/19 06:50:19;;;;;;;236.57;71.25;;;;;;;;;;5012560;28;20208;-45
2024/03/19 06:52:45;;;;;;;233.55;67.03;;;;;;;;;;5011894;28;20191;-45
2024/03/19 06:55:11;;;;;;;240.82;74.43;;;;;;;;;;5012224;28;20190;-45
2024/03/19 06:57:39;;;;;;;233.98;71.00;;;;;;;;;;5008610;28;20553;-45
2024/03/19 07:00:05;;;;;;;232.80;68.00;;;;;;;;;;5012034;28;20195;-45
2024/03/19 07:02:34;;;;;;;235.25;69.18;;;;;;;;;;5011794;28;20190;-45
2024/03/19 07:05:01;;;;;;;235.10;70.90;;;;;;;;;;5011717;28;20224;-45
2024/03/19 07:07:27;;;;;;;231.68;64.70;;;;;;;;;;5011439;28;20697;-45
2024/03/19 07:09:53;;;;;;;231.97;65.00;;;;;;;;;;5011785;28;20312;-45
2024/03/19 07:12:20;;;;;;;233.38;67.80;;;;;;;;;;5011689;28;20411;-45
2024/03/19 07:14:47;;;;;;;233.35;65.88;;;;;;;;;;5011692;28;20188;-45
2024/03/19 07:17:13;;;;;;;234.65;68.97;;;;;;;;;;5011372;28;20189;-45
2024/03/19 07:19:39;;;;;;;233.85;68.30;;;;;;;;;;5011574;28;20194;-45
2024/03/19 07:22:05;;;;;;;236.40;70.43;;;;;;;;;;5011804;28;20180;-45
2024/03/19 07:24:31;;;;;;;232.57;67.10;;;;;;;;;;5011475;28;20464;-45
2024/03/19 07:26:57;;;;;;;236.35;70.03;;;;;;;;;;5011130;28;20436;-45
2024/03/19 07:29:23;;;;;;;234.38;70.22;;;;;;;;;;5011687;28;20547;-45
2024/03/19 07:31:53;;;;;;;237.30;74.05;;;;;;;;;;5011408;28;20174;-45
2024/03/19 07:34:19;;;;;;;240.82;74.70;;;;;;;;;;5010659;28;20179;-45
2024/03/19 07:36:44;;;;;;;234.23;68.07;;;;;;;;;;5010281;28;20207;-45
2024/03/19 07:39:13;;;;;;;235.57;70.10;;;;;;;;;;5010755;28;20414;-45
2024/03/19 07:41:39;;;;;;;237.25;70.60;;;;;;;;;;5007301;28;20442;-46
2024/03/19 07:44:06;;;;;;;237.48;69.97;;;;;;;;;;5010277;28;20289;-45
2024/03/19 07:46:32;;;;;;;240.90;77.72;;;;;;;;;;5010679;28;20227;-45
2024/03/19 07:48:58;;;;;;;236.93;73.37;;;;;;;;;;5010847;28;20211;-45
2024/03/19 07:51:26;;;;;;;239.60;75.18;;;;;;;;;;5011274;28;20449;-45
2024/03/19 07:53:52;;;;;;;235.02;67.50;;;;;;;;;;5011701;28;20180;-45
2024/03/19 07:56:18;;;;;;;238.10;71.47;;;;;;;;;;5010825;28;20272;-45
2024/03/19 07:58:44;;;;;;;236.50;73.00;;;;;;;;;;5010923;28;20498;-45
2024/03/19 08:01:10;;;;;;;235.63;67.87;;;;;;;;;;5010443;28;20422;-45
2024/03/19 08:03:36;;;;;;;238.37;70.03;;;;;;;;;;5011227;28;20508;-45
2024/03/19 08:06:02;;;;;;;236.93;68.72;;;;;;;;;;5009798;28;20473;-45
2024/03/19 08:08:29;;;;;;;236.93;69.65;;;;;;;;;;5010716;28;20537;-45
2024/03/19 08:10:55;;;;;;;248.95;79.15;;;;;;;;;;5010278;28;20218;-45
2024/03/19 08:13:21;;;;;;;238.30;73.75;;;;;;;;;;5006957;28;20175;-45
2024/03/19 08:15:47;;;;;;;236.63;69.07;;;;;;;;;;5010450;28;20192;-45
2024/03/19 08:18:13;;;;;;;241.00;75.97;;;;;;;;;;5010778;28;20411;-45
2024/03/19 08:20:40;;;;;;;238.40;72.20;;;;;;;;;;5010816;28;20902;-45
2024/03/19 08:23:06;;;;;;;239.13;71.80;;;;;;;;;;5010907;28;20512;-45
2024/03/19 08:25:33;;;;;;;239.43;74.63;;;;;;;;;;5010831;28;21368;-45
2024/03/19 08:27:59;;;;;;;242.20;77.40;;;;;;;;;;5010725;28;20419;-45
2024/03/19 08:30:25;;;;;;;242.63;76.50;;;;;;;;;;5010867;28;20423;-45
2024/03/19 08:32:53;;;;;;;240.23;74.33;;;;;;;;;;5010873;28;20411;-45
2024/03/19 08:35:19;;;;;;;244.52;82.03;;;;;;;;;;5010652;28;20461;-46
2024/03/19 08:37:46;;;;;;;239.90;73.63;;;;;;;;;;5010849;28;20612;-45
2024/03/19 08:40:13;;;;;;;243.37;78.10;;;;;;;;;;5010887;28;20420;-45
2024/03/19 08:42:39;;;;;;;241.30;78.03;;;;;;;;;;5010931;28;20411;-45
2024/03/19 08:45:10;;;;;;;247.33;81.60;;;;;;;;;;5010523;28;20181;-45
2024/03/19 08:47:37;;;;;;;252.47;87.90;;;;;;;;;;5010638;28;20698;-45
2024/03/19 08:50:03;;;;;;;247.03;84.13;;;;;;;;;;5011060;28;20782;-46
2024/03/19 08:52:29;;;;;;;248.53;84.10;;;;;;;;;;5010443;28;20487;-46
2024/03/19 08:54:55;;;;;;;255.17;93.87;;;;;;;;;;5010546;28;20453;-45
2024/03/19 08:57:21;;;;;;;248.93;84.97;;;;;;;;;;5013305;28;20430;-46
2024/03/19 08:59:50;;;;;;;248.17;84.13;;;;;;;;;;5014313;28;20757;-45
2024/03/19 09:02:17;;;;;;;247.00;85.47;;;;;;;;;;5014343;28;20427;-46
2024/03/19 09:04:43;;;;;;;247.87;88.63;;;;;;;;;;5014428;28;20462;-45
2024/03/19 09:07:09;;;;;;;246.67;85.80;;;;;;;;;;5013643;28;21089;-45
2024/03/19 09:09:35;;;;;;;256.27;93.67;;;;;;;;;;5013014;28;20493;-45
2024/03/19 09:12:01;;;;;;;247.77;88.43;;;;;;;;;;5014318;28;20904;-45
2024/03/19 09:14:27;;;;;;;250.10;89.67;;;;;;;;;;5014050;28;20759;-45
2024/03/19 09:16:53;;;;;;;248.53;90.87;;;;;;;;;;5013709;28;20435;-46
2024/03/19 09:19:19;;;;;;;245.43;84.83;;;;;;;;;;5013938;28;20780;-45
2024/03/19 09:21:45;;;;;;;251.10;91.87;;;;;;;;;;5013723;28;20414;-45
2024/03/19 09:24:11;;;;;;;247.37;85.57;;;;;;;;;;5013888;28;20469;-45
2024/03/19 09:26:37;;;;;;;253.27;95.73;;;;;;;;;;5004550;28;20862;-45
2024/03/19 09:29:03;;;;;;;247.67;87.90;;;;;;;;;;5013947;28;20490;-46
2024/03/19 09:31:29;;;;;;;248.67;88.60;;;;;;;;;;5013758;28;20429;-45
2024/03/19 09:33:56;;;;;;;243.07;85.00;;;;;;;;;;5013803;28;20435;-46
2024/03/19 09:36:21;;;;;;;250.57;92.13;;;;;;;;;;5012026;28;20435;-45
2024/03/19 09:38:48;;;;;;;250.20;89.40;;;;;;;;;;5013610;28;20417;-45
2024/03/19 09:41:18;;;;;;;249.57;91.93;;;;;;;;;;5013744;28;20419;-45
2024/03/19 09:43:48;;;;;;;248.63;91.90;;;;;;;;;;5013673;28;20533;-45
2024/03/19 09:46:15;;;;;;;250.87;91.67;;;;;;;;;;5013130;28;20867;-46
2024/03/19 09:48:42;;;;;;;248.50;90.13;;;;;;;;;;5013608;28;20435;-45
2024/03/19 09:51:13;;;;;;;245.13;88.23;;;;;;;;;;5013444;28;20446;-45
2024/03/19 09:53:42;;;;;;;247.50;89.93;;;;;;;;;;5005623;28;20494;-45
2024/03/19 09:56:09;;;;;;;249.80;92.73;;;;;;;;;;5012960;28;20798;-43
2024/03/19 09:58:36;;;;;;;248.23;89.57;;;;;;;;;;5013584;28;20501;-43
2024/03/19 10:01:02;;;;;;;248.90;88.47;;;;;;;;;;5013218;28;20415;-43
2024/03/19 10:03:28;;;;;;;251.10;92.47;;;;;;;;;;5012996;28;20560;-43
2024/03/19 10:05:54;;;;;;;247.10;89.33;;;;;;;;;;5012758;28;20522;-43
2024/03/19 10:08:20;;;;;;;250.57;95.53;;;;;;;;;;5012848;28;20498;-43
2024/03/19 10:10:47;;;;;;;246.20;88.43;;;;;;;;;;5013210;28;20407;-43
2024/03/19 10:13:13;;;;;;;253.10;98.70;;;;;;;;;;5013196;28;20419;-43
2024/03/19 10:15:43;;;;;;;249.30;92.00;;;;;;;;;;5011448;28;20446;-43
2024/03/19 10:18:10;;;;;;;251.20;92.00;;;;;;;;;;5012072;28;20907;-43
2024/03/19 10:20:40;;;;;;;254.47;98.83;;;;;;;;;;5012049;28;20415;-43
2024/03/19 10:23:06;;;;;;;251.43;95.27;;;;;;;;;;5016147;28;20450;-44
2024/03/19 10:25:34;;;;;;;251.37;97.57;;;;;;;;;;5013117;28;20860;-43
2024/03/19 10:28:04;;;;;;;254.83;102.93;;;;;;;;;;5012841;28;20805;-44
2024/03/19 10:30:31;;;;;;;250.00;91.73;;;;;;;;;;5012412;28;20418;-43
2024/03/19 10:32:57;;;;;;;254.43;102.40;;;;;;;;;;5012700;28;20430;-44
2024/03/19 10:35:24;;;;;;;254.73;104.60;;;;;;;;;;5012466;28;20426;-44
2024/03/19 10:37:51;;;;;;;253.57;104.17;;;;;;;;;;5012399;28;20479;-44
2024/03/19 10:40:18;;;;;;;252.77;102.67;;;;;;;;;;5012369;28;20415;-43
2024/03/19 10:42:45;;;;;;;250.27;96.37;;;;;;;;;;5012197;28;20473;-43
2024/03/19 10:45:21;;;;;;;260.23;110.53;;;;;;;;;;5011402;28;20442;-44
2024/03/19 10:47:50;;;;;;;251.10;99.57;;;;;;;;;;5012085;28;20430;-44
2024/03/19 10:50:18;;;;;;;257.80;109.13;;;;;;;;;;5012437;28;20407;-43
2024/03/19 10:52:53;;;;;;;251.03;99.63;;;;;;;;;;5012194;28;20408;-43
2024/03/19 10:55:20;;;;;;;259.67;110.60;;;;;;;;;;5011823;28;20465;-43
2024/03/19 10:57:47;;;;;;;251.60;98.80;;;;;;;;;;5012395;28;20484;-43
2024/03/19 11:00:18;;;;;;;249.70;98.83;;;;;;;;;;5012212;28;20922;-43
2024/03/19 11:02:48;;;;;;;251.67;100.03;;;;;;;;;;5012240;28;20469;-43
2024/03/19 11:05:20;;;;;;;259.53;107.27;;;;;;;;;;5009289;28;20418;-43
2024/03/19 11:07:50;;;;;;;249.03;98.00;;;;;;;;;;5010714;28;20431;-43
2024/03/19 11:10:24;;;;;;;247.17;96.03;;;;;;;;;;5011030;28;20454;-43
2024/03/19 11:12:55;;;;;;;249.87;97.40;;;;;;;;;;5011263;28;20434;-43
2024/03/19 11:15:21;;;;;;;253.47;103.60;;;;;;;;;;5010914;28;20403;-44
2024/03/19 11:17:47;;;;;;;250.27;100.93;;;;;;;;;;5010802;28;20429;-43
2024/03/19 11:20:17;;;;;;;251.07;101.40;;;;;;;;;;5010497;28;20403;-44
2024/03/19 11:22:46;;;;;;;255.00;105.30;;;;;;;;;;5009934;28;20481;-43
2024/03/19 11:25:12;;;;;;;254.40;100.90;;;;;;;;;;5010470;28;20403;-43
2024/03/19 11:27:38;;;;;;;247.63;94.97;;;;;;;;;;5007414;28;20423;-43
2024/03/19 11:30:07;;;;;;;248.33;97.23;;;;;;;;;;5011238;28;20541;-43
2024/03/19 11:32:36;;;;;;;250.23;101.83;;;;;;;;;;5010188;28;20907;-43
2024/03/19 11:35:08;;;;;;;254.33;102.97;;;;;;;;;;5008169;28;20415;-43
2024/03/19 11:37:34;;;;;;;248.30;96.60;;;;;;;;;;5010632;28;20427;-43
2024/03/19 11:40:12;;;;;;;250.73;100.60;;;;;;;;;;5010694;28;20784;-43
2024/03/19 11:42:38;;;;;;;248.80;96.20;;;;;;;;;;5010148;28;20422;-43
2024/03/19 11:45:04;;;;;;;251.10;99.97;;;;;;;;;;5009099;28;20411;-43
2024/03/19 11:47:30;;;;;;;251.47;99.57;;;;;;;;;;5010054;28;20431;-43
2024/03/19 11:49:56;;;;;;;252.87;104.23;;;;;;;;;;5010700;28;20415;-44
2024/03/19 11:52:22;;;;;;;249.80;101.37;;;;;;;;;;5009798;28;21044;-43
2024/03/19 11:54:48;;;;;;;248.57;96.07;;;;;;;;;;5010300;28;20419;-43
2024/03/19 11:57:17;;;;;;;251.40;97.50;;;;;;;;;;5009481;28;20450;-43
2024/03/19 11:59:44;;;;;;;251.10;101.03;;;;;;;;;;5005782;28;20411;-44
2024/03/19 12:02:12;;;;;;;257.40;104.20;;;;;;;;;;5009031;28;20465;-44
2024/03/19 12:04:40;;;;;;;252.40;100.50;;;;;;;;;;5009162;28;20988;-43
2024/03/19 12:07:06;;;;;;;252.20;101.27;;;;;;;;;;4972999;28;1066397;-43
2024/03/19 12:09:32;;;;;;;254.07;102.07;;;;;;;;;;5011247;28;20587;-43
2024/03/19 12:11:59;;;;;;;254.80;101.73;;;;;;;;;;5010651;28;20409;-43
2024/03/19 12:14:25;;;;;;;251.17;99.33;;;;;;;;;;5009879;28;20419;-44
2024/03/19 12:16:52;;;;;;;251.13;99.33;;;;;;;;;;5010176;28;20435;-43
2024/03/19 12:19:19;;;;;;;251.00;101.43;;;;;;;;;;5009941;28;20430;-44
2024/03/19 12:21:46;;;;;;;251.47;102.73;;;;;;;;;;5011059;28;20419;-43
2024/03/19 12:24:12;;;;;;;253.77;105.53;;;;;;;;;;5010305;28;20461;-43
2024/03/19 12:26:43;;;;;;;250.77;98.27;;;;;;;;;;5010779;28;20427;-43
2024/03/19 12:29:29;;;;;;;253.50;103.07;;;;;;;;;;5010745;28;20494;-43
2024/03/19 12:32:14;;;;;;;255.77;100.90;;;;;;;;;;5013497;28;20505;-43
2024/03/19 12:37:11;;;;;;;252.03;104.00;;;;;;;;;;5014379;28;20570;-44
2024/03/19 12:39:37;;;;;;;252.17;102.17;;;;;;;;;;5014590;28;20418;-43
2024/03/19 12:42:05;;;;;;;250.77;101.10;;;;;;;;;;5014782;28;20419;-43
2024/03/19 12:44:31;;;;;;;256.87;105.87;;;;;;;;;;5014102;28;20461;-43
2024/03/19 12:46:57;;;;;;;252.47;102.63;;;;;;;;;;5014044;28;20437;-43
2024/03/19 12:49:25;;;;;;;253.27;104.13;;;;;;;;;;5014398;28;20497;-44
2024/03/19 12:51:52;;;;;;;251.57;102.37;;;;;;;;;;5014652;28;20410;-44
2024/03/19 12:54:18;;;;;;;256.03;106.13;;;;;;;;;;5013805;28;20423;-44
2024/03/19 12:56:44;;;;;;;251.83;103.73;;;;;;;;;;5008609;28;20782;-44
2024/03/19 12:59:10;;;;;;;250.87;99.77;;;;;;;;;;5014377;28;20422;-43
2024/03/19 13:01:36;;;;;;;251.37;100.33;;;;;;;;;;5014288;28;20425;-43
2024/03/19 13:04:01;;;;;;;253.83;101.03;;;;;;;;;;5013662;28;20458;-43
2024/03/19 13:06:28;;;;;;;259.00;110.07;;;;;;;;;;5013564;28;20454;-44
2024/03/19 13:08:54;;;;;;;257.33;105.37;;;;;;;;;;5013888;28;20415;-43
2024/03/19 13:11:20;;;;;;;253.93;99.13;;;;;;;;;;5014174;28;20426;-43
2024/03/19 13:13:46;;;;;;;249.77;96.67;;;;;;;;;;5013759;28;20422;-43
2024/03/19 13:16:12;;;;;;;250.83;96.40;;;;;;;;;;5013542;28;20466;-43
2024/03/19 13:18:38;;;;;;;253.03;99.73;;;;;;;;;;5014081;28;20414;-43
2024/03/19 13:21:04;;;;;;;250.73;100.93;;;;;;;;;;5013969;28;20415;-44
2024/03/19 13:23:31;;;;;;;255.40;105.67;;;;;;;;;;5013576;28;20526;-43
2024/03/19 13:25:57;;;;;;;250.10;97.47;;;;;;;;;;5012886;28;20943;-43
2024/03/19 13:28:23;;;;;;;249.63;99.13;;;;;;;;;;5013702;28;20446;-43
2024/03/19 13:30:49;;;;;;;251.97;101.47;;;;;;;;;;5013761;28;20406;-43
2024/03/19 13:33:15;;;;;;;250.23;100.60;;;;;;;;;;5013629;28;20477;-43
2024/03/19 13:35:41;;;;;;;256.57;108.23;;;;;;;;;;5012779;28;20430;-43
2024/03/19 13:38:07;;;;;;;252.13;100.37;;;;;;;;;;5013369;28;20423;-43
2024/03/19 13:40:33;;;;;;;252.90;102.10;;;;;;;;;;5013650;28;20415;-43
2024/03/19 13:42:59;;;;;;;254.10;104.83;;;;;;;;;;5013111;28;20465;-43
2024/03/19 13:45:25;;;;;;;251.63;101.13;;;;;;;;;;5012278;28;20980;-43
2024/03/19 13:47:52;;;;;;;253.50;102.73;;;;;;;;;;5013184;28;20759;-44
2024/03/19 13:50:18;;;;;;;251.03;99.93;;;;;;;;;;5013301;28;20444;-43
2024/03/19 13:52:44;;;;;;;251.27;102.07;;;;;;;;;;5013632;28;20442;-43
2024/03/19 13:55:10;;;;;;;253.03;99.77;;;;;;;;;;5012515;28;20422;-42
2024/03/19 13:57:37;;;;;;;250.57;99.17;;;;;;;;;;5013028;28;20429;-43
2024/03/19 14:00:14;;;;;;;252.10;100.97;;;;;;;;;;5013357;28;20760;-43